createdAt,value
2023-03-16T00:00:26.257Z,5.30
2023-03-16T00:01:27.107Z,5.28
2023-03-16T00:02:27.724Z,5.27
2023-03-16T00:03:28.539Z,5.25
2023-03-16T00:04:29.308Z,5.24
2023-03-16T00:05:29.876Z,5.22
2023-03-16T00:06:30.679Z,5.20
2023-03-16T00:07:31.485Z,5.18
2023-03-16T00:08:32.037Z,5.17
2023-03-16T00:09:32.844Z,5.15
2023-03-16T00:10:33.661Z,5.13
2023-03-16T00:11:34.206Z,5.12
2023-03-16T00:12:35.012Z,5.09
2023-03-16T00:13:35.811Z,5.08
2023-03-16T00:14:36.372Z,5.07
2023-03-16T00:15:37.191Z,5.05
2023-03-16T00:16:38.030Z,5.03
2023-03-16T00:17:38.555Z,5.01
2023-03-16T00:18:39.470Z,5.00
2023-03-16T00:19:40.229Z,4.99
2023-03-16T00:20:40.796Z,4.97
2023-03-16T00:21:41.585Z,4.95
2023-03-16T00:22:42.415Z,4.94
2023-03-16T00:23:42.947Z,4.93
2023-03-16T00:24:43.759Z,4.91
2023-03-16T00:25:44.578Z,4.90
2023-03-16T00:26:45.117Z,4.88
2023-03-16T00:27:45.914Z,4.85
2023-03-16T00:28:46.715Z,4.85
2023-03-16T00:29:47.284Z,4.82
2023-03-16T00:30:48.091Z,4.81
2023-03-16T00:31:48.915Z,4.79
2023-03-16T00:32:49.596Z,4.79
2023-03-16T00:33:50.367Z,4.76
2023-03-16T00:34:51.175Z,4.74
2023-03-16T00:35:51.785Z,4.72
2023-03-16T00:36:52.553Z,4.71
2023-03-16T00:37:53.381Z,4.69
2023-03-16T00:38:53.921Z,4.67
2023-03-16T00:39:54.715Z,4.65
2023-03-16T00:40:55.541Z,4.63
2023-03-16T00:41:56.085Z,4.62
2023-03-16T00:42:56.895Z,4.60
2023-03-16T00:43:57.682Z,4.58
2023-03-16T00:44:58.232Z,4.57
2023-03-16T00:45:59.174Z,4.55
2023-03-16T00:46:59.960Z,4.53
2023-03-16T00:48:00.505Z,4.52
2023-03-16T00:49:01.313Z,4.50
2023-03-16T00:50:02.112Z,4.48
2023-03-16T00:51:02.680Z,4.46
2023-03-16T00:52:03.468Z,4.45
2023-03-16T00:53:04.280Z,4.44
2023-03-16T00:54:04.806Z,4.42
2023-03-16T00:55:05.615Z,4.40
2023-03-16T00:56:06.422Z,4.39
2023-03-16T00:57:06.964Z,4.38
2023-03-16T00:58:07.768Z,4.36
2023-03-16T00:59:08.574Z,4.35
2023-03-16T01:00:09.133Z,4.34
2023-03-16T01:01:10.004Z,4.32
2023-03-16T01:02:10.771Z,4.31
2023-03-16T01:03:11.325Z,4.30
2023-03-16T01:04:12.102Z,4.28
2023-03-16T01:05:19.697Z,4.25
2023-03-16T01:06:13.502Z,4.24
2023-03-16T01:07:14.046Z,4.22
2023-03-16T01:08:14.821Z,4.20
2023-03-16T01:09:15.624Z,4.19
2023-03-16T01:10:16.689Z,4.19
2023-03-16T01:11:17.061Z,4.18
2023-03-16T01:12:17.572Z,4.17
2023-03-16T01:13:18.379Z,4.16
2023-03-16T01:14:19.180Z,4.15
2023-03-16T01:15:19.730Z,4.15
2023-03-16T01:16:20.555Z,4.13
2023-03-16T01:17:21.359Z,4.13
2023-03-16T01:18:21.890Z,4.12
2023-03-16T01:19:22.702Z,4.11
2023-03-16T01:20:23.501Z,4.10
2023-03-16T01:21:24.065Z,4.09
2023-03-16T01:22:24.860Z,4.09
2023-03-16T01:23:25.671Z,4.08
2023-03-16T01:24:26.204Z,4.07
2023-03-16T01:25:27.025Z,4.08
2023-03-16T01:26:27.825Z,4.06
2023-03-16T01:27:28.377Z,4.06
2023-03-16T01:28:29.167Z,4.05
2023-03-16T01:29:30.013Z,4.04
2023-03-16T01:30:30.568Z,4.03
2023-03-16T01:31:31.387Z,4.03
2023-03-16T01:32:32.232Z,4.02
2023-03-16T01:33:32.756Z,4.02
2023-03-16T01:34:33.588Z,4.02
2023-03-16T01:35:34.415Z,4.01
2023-03-16T01:36:34.938Z,4.01
2023-03-16T01:37:35.741Z,4.01
2023-03-16T01:38:36.527Z,4.01
2023-03-16T01:39:37.083Z,4.00
2023-03-16T01:40:37.888Z,4.00
2023-03-16T01:41:38.706Z,3.99
2023-03-16T01:42:39.254Z,3.99
2023-03-16T01:43:40.064Z,3.99
2023-03-16T01:44:40.866Z,3.98
2023-03-16T01:45:41.402Z,3.98
2023-03-16T01:46:42.292Z,3.98
2023-03-16T01:47:43.043Z,3.99
2023-03-16T01:48:43.595Z,3.99
2023-03-16T01:49:44.404Z,3.99
2023-03-16T01:50:45.228Z,3.99
2023-03-16T01:51:45.783Z,3.99
2023-03-16T01:52:46.580Z,3.98
2023-03-16T01:53:47.370Z,3.99
2023-03-16T01:54:47.930Z,3.98
2023-03-16T01:55:48.723Z,3.97
2023-03-16T01:56:49.562Z,3.97
2023-03-16T01:57:50.087Z,3.96
2023-03-16T01:58:50.887Z,3.95
2023-03-16T01:59:51.692Z,3.94
2023-03-16T02:00:52.252Z,3.93
2023-03-16T02:01:53.175Z,3.92
2023-03-16T02:02:53.949Z,3.91
2023-03-16T02:03:54.496Z,3.89
2023-03-16T02:04:55.336Z,3.88
2023-03-16T02:05:56.106Z,3.87
2023-03-16T02:06:56.960Z,3.86
2023-03-16T02:07:57.755Z,3.85
2023-03-16T02:08:58.575Z,3.84
2023-03-16T02:09:59.116Z,3.84
2023-03-16T02:10:59.922Z,3.82
2023-03-16T02:12:00.749Z,3.81
2023-03-16T02:13:01.299Z,3.80
2023-03-16T02:14:02.102Z,3.78
2023-03-16T02:15:02.910Z,3.78
2023-03-16T02:16:03.492Z,3.76
2023-03-16T02:17:04.292Z,3.75
2023-03-16T02:18:05.088Z,3.74
2023-03-16T02:19:05.635Z,3.73
2023-03-16T02:20:06.430Z,3.73
2023-03-16T02:21:07.246Z,3.71
2023-03-16T02:22:07.797Z,3.70
2023-03-16T02:23:08.608Z,3.70
2023-03-16T02:24:09.406Z,3.69
2023-03-16T02:25:09.946Z,3.67
2023-03-16T02:26:10.753Z,3.67
2023-03-16T02:27:11.565Z,3.66
2023-03-16T02:28:12.106Z,3.66
2023-03-16T02:29:12.918Z,3.65
2023-03-16T02:30:13.706Z,3.64
2023-03-16T02:31:14.268Z,3.63
2023-03-16T02:32:15.099Z,3.63
2023-03-16T02:33:15.905Z,3.62
2023-03-16T02:34:16.460Z,3.61
2023-03-16T02:35:17.262Z,3.60
2023-03-16T02:36:18.058Z,3.59
2023-03-16T02:37:18.604Z,3.58
2023-03-16T02:38:19.411Z,3.57
2023-03-16T02:39:20.212Z,3.55
2023-03-16T02:40:20.752Z,3.55
2023-03-16T02:41:21.565Z,3.54
2023-03-16T02:42:22.389Z,3.52
2023-03-16T02:43:22.954Z,3.51
2023-03-16T02:44:23.728Z,3.50
2023-03-16T02:45:24.543Z,3.49
2023-03-16T02:46:25.123Z,3.49
2023-03-16T02:47:25.904Z,3.47
2023-03-16T02:48:26.710Z,3.46
2023-03-16T02:49:27.277Z,3.45
2023-03-16T02:50:28.372Z,3.44
2023-03-16T02:51:29.272Z,3.43
2023-03-16T02:52:29.818Z,3.42
2023-03-16T02:53:30.630Z,3.41
2023-03-16T02:54:31.433Z,3.38
2023-03-16T02:55:31.991Z,3.38
2023-03-16T02:56:32.801Z,3.36
2023-03-16T02:57:33.619Z,3.36
2023-03-16T02:58:34.160Z,3.35
2023-03-16T02:59:34.962Z,3.35
2023-03-16T03:00:35.755Z,3.33
2023-03-16T03:01:36.306Z,3.33
2023-03-16T03:02:37.118Z,3.32
2023-03-16T03:03:38.020Z,3.31
2023-03-16T03:04:38.550Z,3.31
2023-03-16T03:05:39.362Z,3.30
2023-03-16T03:06:40.165Z,3.29
2023-03-16T03:07:40.739Z,3.29
2023-03-16T03:08:41.520Z,3.29
2023-03-16T03:09:42.348Z,3.28
2023-03-16T03:10:42.868Z,3.28
2023-03-16T03:11:43.673Z,3.27
2023-03-16T03:12:44.510Z,3.26
2023-03-16T03:13:45.042Z,3.26
2023-03-16T03:14:45.840Z,3.25
2023-03-16T03:15:46.643Z,3.24
2023-03-16T03:16:47.440Z,3.23
2023-03-16T03:17:47.771Z,3.22
2023-03-16T03:18:48.319Z,3.21
2023-03-16T03:19:49.126Z,3.20
2023-03-16T03:20:49.937Z,3.19
2023-03-16T03:21:50.483Z,3.19
2023-03-16T03:22:51.295Z,3.18
2023-03-16T03:23:52.116Z,3.17
2023-03-16T03:24:52.651Z,3.17
2023-03-16T03:25:53.454Z,3.15
2023-03-16T03:26:54.248Z,3.15
2023-03-16T03:27:54.893Z,3.14
2023-03-16T03:28:55.696Z,3.14
2023-03-16T03:29:56.498Z,3.13
2023-03-16T03:30:57.044Z,3.12
2023-03-16T03:31:57.921Z,3.12
2023-03-16T03:32:58.780Z,3.11
2023-03-16T03:33:59.279Z,3.10
2023-03-16T03:35:00.080Z,3.09
2023-03-16T03:36:00.908Z,3.08
2023-03-16T03:37:01.426Z,3.08
2023-03-16T03:38:02.255Z,3.08
2023-03-16T03:39:03.060Z,3.06
2023-03-16T03:40:03.607Z,3.05
2023-03-16T03:41:04.414Z,3.05
2023-03-16T03:42:05.224Z,3.03
2023-03-16T03:43:05.773Z,3.03
2023-03-16T03:44:06.599Z,3.03
2023-03-16T03:45:07.384Z,3.02
2023-03-16T03:46:08.113Z,3.01
2023-03-16T03:47:08.482Z,3.00
2023-03-16T03:48:09.004Z,3.00
2023-03-16T03:49:09.809Z,2.99
2023-03-16T03:50:10.615Z,2.98
2023-03-16T03:51:11.160Z,2.98
2023-03-16T03:52:11.962Z,2.96
2023-03-16T03:53:12.785Z,2.95
2023-03-16T03:54:13.339Z,2.94
2023-03-16T03:55:14.138Z,2.94
2023-03-16T03:56:14.958Z,2.93
2023-03-16T03:57:15.489Z,2.92
2023-03-16T03:58:16.331Z,2.90
2023-03-16T03:59:17.117Z,2.91
2023-03-16T04:00:17.661Z,2.89
2023-03-16T04:01:18.462Z,2.88
2023-03-16T04:02:19.454Z,2.87
2023-03-16T04:03:20.080Z,2.87
2023-03-16T04:04:20.851Z,2.85
2023-03-16T04:05:21.653Z,2.84
2023-03-16T04:06:22.204Z,2.83
2023-03-16T04:07:23.025Z,2.82
2023-03-16T04:08:23.844Z,2.81
2023-03-16T04:09:24.387Z,2.81
2023-03-16T04:10:25.276Z,2.80
2023-03-16T04:11:26.073Z,2.79
2023-03-16T04:12:26.622Z,2.78
2023-03-16T04:13:27.446Z,2.78
2023-03-16T04:14:28.251Z,2.77
2023-03-16T04:15:28.798Z,2.77
2023-03-16T04:16:29.701Z,2.76
2023-03-16T04:17:30.461Z,2.75
2023-03-16T04:18:31.038Z,2.76
2023-03-16T04:19:31.861Z,2.76
2023-03-16T04:20:32.619Z,2.75
2023-03-16T04:21:33.160Z,2.75
2023-03-16T04:22:33.979Z,2.74
2023-03-16T04:23:34.813Z,2.74
2023-03-16T04:24:35.330Z,2.74
2023-03-16T04:25:36.132Z,2.73
2023-03-16T04:26:36.934Z,2.72
2023-03-16T04:27:37.479Z,2.72
2023-03-16T04:28:38.292Z,2.71
2023-03-16T04:29:39.110Z,2.71
2023-03-16T04:30:39.736Z,2.71
2023-03-16T04:31:40.465Z,2.69
2023-03-16T04:32:41.287Z,2.69
2023-03-16T04:33:41.872Z,2.69
2023-03-16T04:34:42.676Z,2.68
2023-03-16T04:35:43.517Z,2.68
2023-03-16T04:36:44.039Z,2.67
2023-03-16T04:37:44.845Z,2.67
2023-03-16T04:38:45.658Z,2.66
2023-03-16T04:39:46.223Z,2.66
2023-03-16T04:40:47.010Z,2.66
2023-03-16T04:41:47.814Z,2.65
2023-03-16T04:42:48.362Z,2.64
2023-03-16T04:43:49.185Z,2.65
2023-03-16T04:44:49.993Z,2.64
2023-03-16T04:45:50.577Z,2.64
2023-03-16T04:46:51.353Z,2.63
2023-03-16T04:47:52.158Z,2.63
2023-03-16T04:48:52.721Z,2.62
2023-03-16T04:49:53.520Z,2.62
2023-03-16T04:50:54.316Z,2.61
2023-03-16T04:51:54.854Z,2.61
2023-03-16T04:52:55.595Z,2.60
2023-03-16T04:53:56.416Z,2.59
2023-03-16T04:54:56.962Z,2.59
2023-03-16T04:55:57.719Z,2.58
2023-03-16T04:56:58.471Z,2.58
2023-03-16T04:57:59.444Z,2.58
2023-03-16T04:59:00.275Z,2.57
2023-03-16T05:00:01.084Z,2.56
2023-03-16T05:01:01.618Z,2.56
2023-03-16T05:02:02.369Z,2.56
2023-03-16T05:03:03.129Z,2.55
2023-03-16T05:04:03.634Z,2.54
2023-03-16T05:05:04.388Z,2.53
2023-03-16T05:06:05.142Z,2.54
2023-03-16T05:07:05.675Z,2.53
2023-03-16T05:08:06.421Z,2.52
2023-03-16T05:09:07.188Z,2.51
2023-03-16T05:10:07.686Z,2.51
2023-03-16T05:11:08.458Z,2.51
2023-03-16T05:12:09.211Z,2.51
2023-03-16T05:13:09.689Z,2.51
2023-03-16T05:14:10.457Z,2.50
2023-03-16T05:15:11.222Z,2.51
2023-03-16T05:16:11.819Z,2.51
2023-03-16T05:17:12.634Z,2.52
2023-03-16T05:18:13.388Z,2.51
2023-03-16T05:19:13.895Z,2.52
2023-03-16T05:20:16.167Z,2.51
2023-03-16T05:21:15.434Z,2.51
2023-03-16T05:22:16.181Z,2.51
2023-03-16T05:23:17.419Z,2.51
2023-03-16T05:24:17.928Z,2.52
2023-03-16T05:25:18.696Z,2.52
2023-03-16T05:26:19.417Z,2.52
2023-03-16T05:27:20.421Z,2.53
2023-03-16T05:28:21.160Z,2.53
2023-03-16T05:29:21.941Z,2.54
2023-03-16T05:30:22.433Z,2.55
2023-03-16T05:31:23.277Z,2.56
2023-03-16T05:32:23.998Z,2.58
2023-03-16T05:33:24.495Z,2.59
2023-03-16T05:34:25.274Z,2.60
2023-03-16T05:35:26.025Z,2.62
2023-03-16T05:36:26.511Z,2.64
2023-03-16T05:37:27.282Z,2.66
2023-03-16T05:38:28.506Z,2.68
2023-03-16T05:39:29.776Z,2.70
2023-03-16T05:40:30.515Z,2.72
2023-03-16T05:41:30.862Z,2.74
2023-03-16T05:42:31.351Z,2.77
2023-03-16T05:43:32.105Z,2.78
2023-03-16T05:44:33.377Z,2.81
2023-03-16T05:45:33.869Z,2.83
2023-03-16T05:46:34.704Z,2.85
2023-03-16T05:47:35.441Z,2.88
2023-03-16T05:48:36.410Z,2.90
2023-03-16T05:49:37.177Z,2.93
2023-03-16T05:50:37.909Z,2.97
2023-03-16T05:51:38.909Z,3.00
2023-03-16T05:52:39.665Z,3.03
2023-03-16T05:53:40.416Z,3.07
2023-03-16T05:54:40.915Z,3.10
2023-03-16T05:55:41.671Z,3.14
2023-03-16T05:56:42.413Z,3.17
2023-03-16T05:57:43.407Z,3.21
2023-03-16T05:58:44.148Z,3.23
2023-03-16T05:59:44.903Z,3.27
2023-03-16T06:00:45.886Z,3.31
2023-03-16T06:01:46.643Z,3.35
2023-03-16T06:02:47.902Z,3.40
2023-03-16T06:03:48.409Z,3.44
2023-03-16T06:04:49.134Z,3.49
2023-03-16T06:05:49.883Z,3.53
2023-03-16T06:06:50.874Z,3.58
2023-03-16T06:07:51.620Z,3.61
2023-03-16T06:08:52.861Z,3.65
2023-03-16T06:09:54.124Z,3.67
2023-03-16T06:10:54.613Z,3.70
2023-03-16T06:11:55.359Z,3.73
2023-03-16T06:12:56.113Z,3.76
2023-03-16T06:13:56.607Z,3.80
2023-03-16T06:14:57.374Z,3.83
2023-03-16T06:15:58.184Z,3.87
2023-03-16T06:16:58.652Z,3.92
2023-03-16T06:17:59.404Z,3.96
2023-03-16T06:19:00.653Z,4.01
2023-03-16T06:20:01.148Z,4.05
2023-03-16T06:21:01.933Z,4.10
2023-03-16T06:22:02.713Z,4.15
2023-03-16T06:23:03.217Z,4.20
2023-03-16T06:24:03.957Z,4.26
2023-03-16T06:25:04.726Z,4.32
2023-03-16T06:26:05.217Z,4.37
2023-03-16T06:27:05.965Z,4.41
2023-03-16T06:28:06.706Z,4.45
2023-03-16T06:29:07.696Z,4.50
2023-03-16T06:30:08.468Z,4.55
2023-03-16T06:31:09.291Z,4.60
2023-03-16T06:32:09.728Z,4.64
2023-03-16T06:33:10.530Z,4.69
2023-03-16T06:34:11.229Z,4.74
2023-03-16T06:35:11.763Z,4.79
2023-03-16T06:36:12.658Z,4.83
2023-03-16T06:37:13.364Z,4.89
2023-03-16T06:38:13.848Z,4.93
2023-03-16T06:39:14.613Z,4.97
2023-03-16T06:40:15.363Z,5.00
2023-03-16T06:41:15.870Z,5.04
2023-03-16T06:42:16.611Z,5.07
2023-03-16T06:43:17.370Z,5.10
2023-03-16T06:44:17.871Z,5.11
2023-03-16T06:45:18.634Z,5.15
2023-03-16T06:46:19.402Z,5.18
2023-03-16T06:47:20.382Z,5.22
2023-03-16T06:48:21.115Z,5.24
2023-03-16T06:49:21.863Z,5.27
2023-03-16T06:50:22.366Z,5.30
2023-03-16T06:51:23.096Z,5.32
2023-03-16T06:52:24.344Z,5.36
2023-03-16T06:53:25.024Z,5.39
2023-03-16T06:54:25.770Z,5.43
2023-03-16T06:55:26.561Z,5.48
2023-03-16T06:56:27.033Z,5.51
2023-03-16T06:57:27.788Z,5.54
2023-03-16T06:58:29.041Z,5.56
2023-03-16T06:59:30.270Z,5.59
2023-03-16T07:00:30.999Z,5.58
2023-03-16T07:01:31.310Z,5.59
2023-03-16T07:02:31.757Z,5.60
2023-03-16T07:03:32.503Z,5.62
2023-03-16T07:04:33.794Z,5.64
2023-03-16T07:05:34.311Z,5.65
2023-03-16T07:06:35.053Z,5.67
2023-03-16T07:07:35.802Z,5.70
2023-03-16T07:08:36.298Z,5.74
2023-03-16T07:09:39.622Z,5.78
2023-03-16T07:10:38.045Z,5.80
2023-03-16T07:11:38.542Z,5.84
2023-03-16T07:12:39.240Z,5.89
2023-03-16T07:13:40.478Z,5.93
2023-03-16T07:14:41.713Z,5.98
2023-03-16T07:15:42.224Z,6.05
2023-03-16T07:16:43.023Z,6.10
2023-03-16T07:17:43.726Z,6.14
2023-03-16T07:18:44.701Z,6.19
2023-03-16T07:19:45.458Z,6.22
2023-03-16T07:20:46.257Z,6.24
2023-03-16T07:21:46.724Z,6.26
2023-03-16T07:22:47.488Z,6.28
2023-03-16T07:23:48.243Z,6.33
2023-03-16T07:24:48.727Z,6.37
2023-03-16T07:25:49.476Z,6.40
2023-03-16T07:26:50.229Z,6.39
2023-03-16T07:27:50.734Z,6.40
2023-03-16T07:28:51.493Z,6.44
2023-03-16T07:29:52.245Z,6.44
2023-03-16T07:31:03.425Z,6.46
2023-03-16T07:31:54.891Z,6.47
2023-03-16T07:32:54.643Z,6.50
2023-03-16T07:33:55.590Z,6.52
2023-03-16T07:34:58.182Z,6.54
2023-03-16T07:35:57.116Z,6.57
2023-03-16T07:36:58.719Z,6.61
2023-03-16T07:37:58.679Z,6.64
2023-03-16T07:38:59.432Z,6.68
2023-03-16T07:40:00.197Z,6.72
2023-03-16T07:41:00.676Z,6.74
2023-03-16T07:42:01.435Z,6.76
2023-03-16T07:43:02.672Z,6.80
2023-03-16T07:44:03.190Z,6.83
2023-03-16T07:45:03.933Z,6.88
2023-03-16T07:46:05.235Z,6.91
2023-03-16T07:47:05.780Z,6.95
2023-03-16T07:48:06.545Z,6.97
2023-03-16T07:49:07.306Z,7.00
2023-03-16T07:50:07.797Z,7.03
2023-03-16T07:51:08.546Z,7.07
2023-03-16T07:52:09.301Z,7.10
2023-03-16T07:53:09.779Z,7.15
2023-03-16T07:54:10.546Z,7.19
2023-03-16T07:55:11.285Z,7.24
2023-03-16T07:56:12.272Z,7.27
2023-03-16T07:57:13.021Z,7.31
2023-03-16T07:58:14.268Z,7.34
2023-03-16T07:59:14.775Z,7.37
2023-03-16T08:00:15.527Z,7.43
2023-03-16T08:01:16.282Z,7.47
2023-03-16T08:02:16.837Z,7.52
2023-03-16T08:03:17.648Z,7.57
2023-03-16T08:04:18.350Z,7.61
2023-03-16T08:05:18.844Z,7.64
2023-03-16T08:06:19.603Z,7.66
2023-03-16T08:07:20.346Z,7.69
2023-03-16T08:08:20.852Z,7.71
2023-03-16T08:09:21.614Z,7.76
2023-03-16T08:10:22.356Z,7.87
2023-03-16T08:11:22.850Z,7.94
2023-03-16T08:12:23.657Z,7.94
2023-03-16T08:13:24.372Z,7.92
2023-03-16T08:14:25.386Z,7.97
2023-03-16T08:15:26.129Z,8.08
2023-03-16T08:16:27.452Z,8.21
2023-03-16T08:17:27.929Z,8.30
2023-03-16T08:18:28.676Z,8.38
2023-03-16T08:19:29.435Z,8.47
2023-03-16T08:20:30.221Z,8.51
2023-03-16T08:21:30.658Z,8.58
2023-03-16T08:22:31.165Z,8.70
2023-03-16T08:23:31.894Z,8.86
2023-03-16T08:24:33.198Z,9.00
2023-03-16T08:25:33.680Z,9.12
2023-03-16T08:26:34.440Z,9.30
2023-03-16T08:27:35.191Z,9.50
2023-03-16T08:28:35.723Z,9.72
2023-03-16T08:29:36.434Z,9.99
2023-03-16T08:30:37.190Z,10.20
2023-03-16T08:31:37.709Z,10.37
2023-03-16T08:32:38.516Z,10.54
2023-03-16T08:33:39.225Z,10.70
2023-03-16T08:34:39.753Z,10.83
2023-03-16T08:35:40.530Z,11.01
2023-03-16T08:36:41.256Z,11.18
2023-03-16T08:37:41.766Z,11.26
2023-03-16T08:38:44.056Z,11.41
2023-03-16T08:39:43.055Z,11.48
2023-03-16T08:40:43.802Z,11.53
2023-03-16T08:41:44.557Z,11.65
2023-03-16T08:42:45.546Z,11.70
2023-03-16T08:43:46.290Z,11.73
2023-03-16T08:44:47.550Z,11.75
2023-03-16T08:45:48.038Z,11.77
2023-03-16T08:46:48.875Z,11.74
2023-03-16T08:47:49.691Z,11.79
2023-03-16T08:48:50.175Z,11.95
2023-03-16T08:49:50.945Z,12.11
2023-03-16T08:50:51.686Z,12.19
